createdAt,value
2022-08-09T00:01:43.055Z,101868.81
2022-08-09T00:04:06.132Z,101876.94
2022-08-09T00:06:23.284Z,101876.09
2022-08-09T00:08:31.966Z,101888.66
2022-08-09T00:10:34.597Z,101883.31
2022-08-09T00:12:37.381Z,101878.72
2022-08-09T00:14:40.106Z,101881.50
2022-08-09T00:16:47.021Z,101884.16
2022-08-09T00:18:49.259Z,101879.78
2022-08-09T00:20:50.791Z,101880.66
2022-08-09T00:22:52.864Z,101871.69
2022-08-09T00:24:55.994Z,101873.50
2022-08-09T00:26:57.637Z,101864.53
2022-08-09T00:29:01.627Z,101865.41
2022-08-09T00:31:30.639Z,101865.34
2022-08-09T00:33:32.805Z,101861.78
2022-08-09T00:35:46.406Z,101869.88
2022-08-09T00:37:48.820Z,101858.16
2022-08-09T00:40:09.471Z,101869.03
2022-08-09T00:44:14.998Z,101862.72
2022-08-09T00:44:35.515Z,101858.22
2022-08-09T00:46:57.232Z,101872.66
2022-08-09T00:49:00.938Z,101864.56
2022-08-09T00:51:03.607Z,101866.31
2022-08-09T00:53:13.558Z,101868.13
2022-08-09T00:56:03.268Z,101857.34
2022-08-09T00:57:39.839Z,101859.19
2022-08-09T00:59:46.678Z,101864.56
2022-08-09T01:01:48.888Z,101868.19
2022-08-09T01:03:54.962Z,101867.28
2022-08-09T01:06:03.921Z,101866.38
2022-08-09T01:08:26.762Z,101866.41
2022-08-09T01:10:30.917Z,101869.06
2022-08-09T01:12:35.226Z,101874.47
2022-08-09T01:14:39.497Z,101871.75
2022-08-09T01:16:47.269Z,101868.19
2022-08-09T01:19:04.569Z,101863.69
2022-08-09T01:21:13.496Z,101861.88
2022-08-09T01:24:03.160Z,101861.00
2022-08-09T01:25:52.323Z,101864.56
2022-08-09T01:27:57.972Z,101861.91
2022-08-09T01:30:00.726Z,101856.47
2022-08-09T01:32:32.513Z,101860.09
2022-08-09T01:34:25.447Z,101867.28
2022-08-09T01:36:27.660Z,101864.56
2022-08-09T01:38:29.877Z,101867.25
2022-08-09T01:40:32.067Z,101863.66
2022-08-09T01:42:34.457Z,101861.84
2022-08-09T01:44:38.519Z,101860.91
2022-08-09T01:46:40.813Z,101866.34
2022-08-09T01:48:44.778Z,101863.63
2022-08-09T01:50:54.989Z,101860.00
2022-08-09T01:52:56.982Z,101859.09
2022-08-09T01:54:58.529Z,101861.84
2022-08-09T01:57:04.227Z,101862.75
2022-08-09T01:59:06.735Z,101863.63
2022-08-09T02:01:10.191Z,101861.81
2022-08-09T02:03:20.298Z,101867.19
2022-08-09T02:05:38.053Z,101862.75
2022-08-09T02:08:40.802Z,101855.56
2022-08-09T02:10:09.928Z,101858.25
2022-08-09T02:12:17.965Z,101863.66
2022-08-09T02:14:26.254Z,101865.44
2022-08-09T02:16:33.767Z,101861.84
2022-08-09T02:18:51.036Z,101867.09
2022-08-09T02:20:55.365Z,101855.53
2022-08-09T02:23:00.084Z,101860.88
2022-08-09T02:25:02.129Z,101865.34
2022-08-09T02:27:04.523Z,101856.41
2022-08-09T02:29:09.459Z,101874.31
2022-08-09T02:31:12.895Z,101858.16
2022-08-09T02:33:18.811Z,101856.44
2022-08-09T02:36:01.967Z,101859.09
2022-08-09T02:37:46.751Z,101858.16
2022-08-09T02:39:55.378Z,101860.84
2022-08-09T02:42:04.484Z,101858.16
2022-08-09T02:44:13.700Z,101851.03
2022-08-09T02:46:21.430Z,101861.69
2022-08-09T02:48:30.721Z,101858.97
2022-08-09T02:50:33.751Z,101855.50
2022-08-09T02:52:37.126Z,101856.41
2022-08-09T02:54:54.071Z,101854.44
2022-08-09T02:56:57.022Z,101848.31
2022-08-09T02:58:59.773Z,101850.97
2022-08-09T03:01:03.960Z,101856.16
2022-08-09T03:03:06.322Z,101840.94
2022-08-09T03:05:11.188Z,101848.13
2022-08-09T03:07:18.393Z,101856.13
2022-08-09T03:09:19.927Z,101854.38
2022-08-09T03:12:04.877Z,101851.63
2022-08-09T03:13:59.311Z,101849.84
2022-08-09T03:16:06.353Z,101852.41
2022-08-09T03:18:10.741Z,101852.53
2022-08-09T03:20:13.850Z,101849.00
2022-08-09T03:22:25.179Z,101861.59
2022-08-09T03:24:52.436Z,101855.22
2022-08-09T03:26:53.498Z,101857.09
2022-08-09T03:28:55.278Z,101860.56
2022-08-09T03:30:57.083Z,101855.94
2022-08-09T03:32:58.818Z,101858.88
2022-08-09T03:35:00.410Z,101855.22
2022-08-09T03:37:54.691Z,101859.56
2022-08-09T03:39:28.676Z,101850.59
2022-08-09T03:41:48.360Z,101856.91
2022-08-09T03:44:02.943Z,101857.81
2022-08-09T03:46:20.516Z,101858.69
2022-08-09T03:48:30.911Z,101850.56
2022-08-09T03:50:33.457Z,101846.06
2022-08-09T03:52:36.617Z,101851.56
2022-08-09T03:54:40.380Z,101857.69
2022-08-09T03:56:41.986Z,101856.75
2022-08-09T03:58:43.611Z,101856.81
2022-08-09T04:00:47.793Z,101850.63
2022-08-09T04:02:52.653Z,101854.97
2022-08-09T04:04:55.864Z,101850.44
2022-08-09T04:06:57.375Z,101853.31
2022-08-09T04:09:00.767Z,101858.66
2022-08-09T04:11:02.308Z,101853.97
2022-08-09T04:13:04.723Z,101864.03
2022-08-09T04:15:17.287Z,101864.03
2022-08-09T04:17:29.555Z,101866.50
2022-08-09T04:19:42.906Z,101866.56
2022-08-09T04:21:52.872Z,101877.28
2022-08-09T04:23:57.716Z,101872.06
2022-08-09T04:26:00.835Z,101868.31
2022-08-09T04:28:03.546Z,101871.75
2022-08-09T04:30:06.053Z,101864.75
2022-08-09T04:32:07.607Z,101873.84
2022-08-09T04:34:09.174Z,101875.47
2022-08-09T04:36:11.437Z,101884.34
2022-08-09T04:38:13.330Z,101877.19
2022-08-09T04:40:19.033Z,101876.50
2022-08-09T04:42:32.525Z,101881.91
2022-08-09T04:44:37.278Z,101873.41
2022-08-09T04:46:58.079Z,101885.41
2022-08-09T04:49:00.737Z,101884.34
2022-08-09T04:51:02.296Z,101887.13
2022-08-09T04:53:04.938Z,101882.66
2022-08-09T04:55:07.081Z,101876.13
2022-08-09T04:57:12.316Z,101881.53
2022-08-09T04:59:15.679Z,101882.63
2022-08-09T05:01:18.737Z,101886.41
2022-08-09T05:03:40.460Z,101889.16
2022-08-09T05:05:52.191Z,101887.28
2022-08-09T05:08:04.187Z,101885.22
2022-08-09T05:10:06.249Z,101891.38
2022-08-09T05:12:08.035Z,101894.22
2022-08-09T05:14:10.244Z,101888.91
2022-08-09T05:16:17.478Z,101896.00
2022-08-09T05:18:39.214Z,101883.41
2022-08-09T05:20:41.916Z,101892.44
2022-08-09T05:23:55.124Z,101890.75
2022-08-09T05:25:08.037Z,101889.72
2022-08-09T05:27:10.679Z,101895.25
2022-08-09T05:29:21.635Z,101888.91
2022-08-09T05:31:44.021Z,101893.47
2022-08-09T05:33:47.036Z,101901.66
2022-08-09T05:35:50.887Z,101899.97
2022-08-09T05:37:52.520Z,101909.03
2022-08-09T05:39:54.098Z,101906.25
2022-08-09T05:41:56.172Z,101908.19
2022-08-09T05:44:03.240Z,101914.47
2022-08-09T05:46:06.980Z,101916.00
2022-08-09T05:48:09.917Z,101908.03
2022-08-09T05:50:26.786Z,101925.22
2022-08-09T05:52:33.257Z,101920.66
2022-08-09T05:54:35.645Z,101912.84
2022-08-09T05:56:55.326Z,101919.97
2022-08-09T05:58:58.916Z,101913.47
2022-08-09T06:01:00.613Z,101910.66
2022-08-09T06:03:02.944Z,101918.69
2022-08-09T06:05:07.276Z,101927.03
2022-08-09T06:07:09.735Z,101920.91
2022-08-09T06:09:40.777Z,101928.13
2022-08-09T06:11:40.798Z,101912.09
2022-08-09T06:13:54.461Z,101917.38
2022-08-09T06:15:56.172Z,101917.38
2022-08-09T06:17:57.695Z,101924.53
2022-08-09T06:19:59.186Z,101928.28
2022-08-09T06:22:02.353Z,101930.09
2022-08-09T06:24:05.019Z,101934.59
2022-08-09T06:26:06.642Z,101931.97
2022-08-09T06:28:08.218Z,101930.13
2022-08-09T06:30:10.634Z,101934.63
2022-08-09T06:32:59.631Z,101939.94
2022-08-09T06:34:37.342Z,101948.84
2022-08-09T06:36:42.891Z,101946.19
2022-08-09T06:38:50.147Z,101939.06
2022-08-09T06:40:55.106Z,101935.53
2022-08-09T06:42:56.781Z,101950.72
2022-08-09T06:44:58.328Z,101955.22
2022-08-09T06:47:00.022Z,101944.53
2022-08-09T06:49:03.471Z,101945.44
2022-08-09T06:51:05.122Z,101947.25
2022-08-09T06:53:06.775Z,101958.00
2022-08-09T06:55:12.831Z,101952.66
2022-08-09T06:57:14.572Z,101953.53
2022-08-09T07:00:51.173Z,101956.19
2022-08-09T07:01:54.442Z,101942.72
2022-08-09T07:04:00.818Z,101958.88
2022-08-09T07:06:05.899Z,101956.19
2022-08-09T07:08:07.438Z,101955.34
2022-08-09T07:10:22.395Z,101953.47
2022-08-09T07:12:38.602Z,101960.63
2022-08-09T07:14:42.740Z,101953.44
2022-08-09T07:16:48.130Z,101963.13
2022-08-09T07:18:52.372Z,101956.84
2022-08-09T07:20:54.530Z,101965.97
2022-08-09T07:22:57.669Z,101962.22
2022-08-09T07:25:00.226Z,101952.50
2022-08-09T07:27:03.271Z,101956.75
2022-08-09T07:29:13.524Z,101965.69
2022-08-09T07:31:15.232Z,101959.53
2022-08-09T07:33:17.512Z,101954.03
2022-08-09T07:35:19.279Z,101962.78
2022-08-09T07:37:22.041Z,101954.78
2022-08-09T07:39:40.278Z,101957.66
2022-08-09T07:41:43.313Z,101949.59
2022-08-09T07:43:55.983Z,101949.47
2022-08-09T07:46:01.930Z,101959.47
2022-08-09T07:48:05.204Z,101950.47
2022-08-09T07:50:08.561Z,101948.50
2022-08-09T07:52:17.046Z,101946.47
2022-08-09T07:54:28.062Z,101944.59
2022-08-09T07:56:31.930Z,101950.63
2022-08-09T07:58:33.491Z,101950.53
2022-08-09T08:00:36.813Z,101955.38
2022-08-09T08:02:57.737Z,101959.97
2022-08-09T08:04:59.660Z,101954.63
2022-08-09T08:07:09.286Z,101948.59
2022-08-09T08:09:38.708Z,101955.34
2022-08-09T08:12:11.196Z,101959.41
2022-08-09T08:14:06.450Z,101953.63
2022-08-09T08:16:29.509Z,101953.91
2022-08-09T08:18:31.039Z,101956.56
2022-08-09T08:20:33.503Z,101953.44
2022-08-09T08:22:35.253Z,101952.50
2022-08-09T08:24:40.747Z,101958.06
2022-08-09T08:26:55.529Z,101964.13
2022-08-09T08:28:58.109Z,101960.75
2022-08-09T08:31:02.458Z,101949.16
2022-08-09T08:33:12.014Z,101954.41
2022-08-09T08:35:24.637Z,101957.47
2022-08-09T08:37:41.467Z,101961.34
2022-08-09T08:40:00.208Z,101959.53
2022-08-09T08:42:01.847Z,101955.69
2022-08-09T08:44:04.585Z,101958.59
2022-08-09T08:46:32.230Z,101962.00
2022-08-09T08:48:31.183Z,101956.59
2022-08-09T08:50:32.782Z,101948.13
2022-08-09T08:52:57.708Z,101951.13
2022-08-09T08:54:58.147Z,101944.91
2022-08-09T08:56:59.667Z,101953.16
2022-08-09T08:59:01.349Z,101952.34
2022-08-09T09:01:19.726Z,101946.47
2022-08-09T09:03:33.159Z,101946.44
2022-08-09T09:05:58.333Z,101952.53
2022-08-09T09:08:02.257Z,101949.72
2022-08-09T09:10:09.141Z,101946.06
2022-08-09T09:12:16.547Z,101942.78
2022-08-09T09:14:19.830Z,101942.69
2022-08-09T09:16:30.913Z,101946.47
2022-08-09T09:18:33.343Z,101950.53
2022-08-09T09:20:35.403Z,101942.47
2022-08-09T09:22:55.519Z,101952.63
2022-08-09T09:26:03.356Z,101942.22
2022-08-09T09:28:03.807Z,101945.72
2022-08-09T09:30:11.485Z,101946.81
2022-08-09T09:32:14.916Z,101948.03
2022-08-09T09:34:18.513Z,101944.97
2022-08-09T09:36:21.987Z,101947.00
2022-08-09T09:38:38.334Z,101939.25
2022-08-09T09:40:42.869Z,101934.78
2022-08-09T09:42:54.960Z,101926.91
2022-08-09T09:44:57.138Z,101936.59
2022-08-09T09:47:04.389Z,101933.22
2022-08-09T09:49:06.959Z,101937.50
2022-08-09T09:51:11.653Z,101934.19
2022-08-09T09:53:43.754Z,101927.06
2022-08-09T09:55:57.632Z,101929.53
2022-08-09T09:58:16.353Z,101928.81
2022-08-09T10:00:22.060Z,101929.31
2022-08-09T10:02:26.604Z,101915.72
2022-08-09T10:04:30.824Z,101921.41
2022-08-09T10:06:38.404Z,101915.63
2022-08-09T10:08:55.035Z,101923.97
2022-08-09T10:10:59.005Z,101924.50
2022-08-09T10:13:00.924Z,101923.69
2022-08-09T10:15:03.643Z,101918.44
2022-08-09T10:17:51.170Z,101918.72
2022-08-09T10:19:35.831Z,101912.09
2022-08-09T10:21:45.359Z,101913.16
2022-08-09T10:23:52.062Z,101912.72
2022-08-09T10:26:06.553Z,101915.34
2022-08-09T10:28:12.260Z,101910.41
2022-08-09T10:30:57.905Z,101910.25
2022-08-09T10:32:48.382Z,101907.97
2022-08-09T10:34:49.974Z,101914.94
2022-08-09T10:36:51.635Z,101911.88
2022-08-09T10:38:56.725Z,101907.84
2022-08-09T10:41:01.073Z,101923.81
2022-08-09T10:43:04.734Z,101910.31
2022-08-09T10:45:11.848Z,101901.16
2022-08-09T10:48:10.163Z,101901.47
2022-08-09T10:49:51.456Z,101904.53
2022-08-09T10:51:58.863Z,101901.63
2022-08-09T10:54:04.792Z,101899.75
2022-08-09T10:56:22.611Z,101894.31
2022-08-09T10:58:31.203Z,101892.75
2022-08-09T11:00:41.769Z,101893.06
2022-08-09T11:03:12.077Z,101897.94
2022-08-09T11:05:24.900Z,101890.50
2022-08-09T11:07:58.324Z,101894.31
2022-08-09T11:09:56.205Z,101892.53
2022-08-09T11:12:11.326Z,101887.25
2022-08-09T11:14:28.887Z,101897.31
2022-08-09T11:16:37.736Z,101893.25
2022-08-09T11:18:42.585Z,101892.97
2022-08-09T11:20:46.629Z,101885.78
2022-08-09T11:22:58.469Z,101883.72
2022-08-09T11:25:08.451Z,101882.47
2022-08-09T11:28:02.962Z,101875.38
2022-08-09T11:30:04.861Z,101884.03
2022-08-09T11:32:08.148Z,101883.88
2022-08-09T11:34:10.465Z,101882.16
2022-08-09T11:36:11.978Z,101888.31
2022-08-09T11:38:34.781Z,101889.69
2022-08-09T11:40:38.106Z,101882.03
2022-08-09T11:42:40.376Z,101884.91
2022-08-09T11:44:45.066Z,101875.44
2022-08-09T11:46:54.315Z,101875.94
2022-08-09T11:48:58.450Z,101873.00
2022-08-09T11:52:48.453Z,101862.16
2022-08-09T11:53:58.409Z,101874.78
2022-08-09T11:55:51.950Z,101863.25
2022-08-09T11:58:00.373Z,101866.66
2022-08-09T12:00:04.603Z,101865.66
2022-08-09T12:02:17.518Z,101865.22
2022-08-09T12:04:32.214Z,101856.09
2022-08-09T12:06:38.840Z,101858.28
2022-08-09T12:08:55.394Z,101856.59
2022-08-09T12:10:58.842Z,101854.72
2022-08-09T12:13:03.685Z,101854.28
2022-08-09T12:15:49.149Z,101853.19
2022-08-09T12:17:48.967Z,101841.03
2022-08-09T12:19:59.816Z,101844.13
2022-08-09T12:22:01.984Z,101836.94
2022-08-09T12:24:09.581Z,101826.47
2022-08-09T12:26:12.953Z,101831.78
2022-08-09T12:29:13.810Z,101828.03
2022-08-09T12:30:49.108Z,101835.63
2022-08-09T12:32:50.727Z,101830.31
2022-08-09T12:34:52.258Z,101834.06
2022-08-09T12:36:59.097Z,101839.94
2022-08-09T12:39:17.917Z,101834.22
2022-08-09T12:41:25.692Z,101835.22
2022-08-09T12:44:05.910Z,101829.88
2022-08-09T12:46:00.247Z,101830.78
2022-08-09T12:48:02.387Z,101830.59
2022-08-09T12:50:04.372Z,101818.84
2022-08-09T12:52:06.543Z,101821.50
2022-08-09T12:54:08.598Z,101824.13
2022-08-09T12:56:43.559Z,101812.75
2022-08-09T12:58:34.342Z,101823.31
2022-08-09T13:00:44.813Z,101816.16
2022-08-09T13:02:53.299Z,101809.88
2022-08-09T13:05:02.409Z,101795.66
2022-08-09T13:07:11.266Z,101814.28
2022-08-09T13:09:15.459Z,101799.97
2022-08-09T13:11:24.305Z,101806.00
2022-08-09T13:14:01.032Z,101801.31
2022-08-09T13:15:52.751Z,101794.94
2022-08-09T13:18:05.468Z,101799.94
2022-08-09T13:20:18.684Z,101802.38
2022-08-09T13:22:37.482Z,101789.25
2022-08-09T13:24:54.216Z,101784.69
2022-08-09T13:26:56.260Z,101795.34
2022-08-09T13:29:04.645Z,101796.44
2022-08-09T13:32:19.953Z,101779.88
2022-08-09T13:33:35.974Z,101787.00
2022-08-09T13:36:24.163Z,101778.44
2022-08-09T13:38:17.605Z,101777.16
2022-08-09T13:41:50.637Z,101769.47
2022-08-09T13:42:58.222Z,101774.19
2022-08-09T13:44:59.779Z,101768.88
2022-08-09T13:47:27.704Z,101770.00
2022-08-09T13:49:24.584Z,101766.63
2022-08-09T13:51:39.758Z,101759.84
2022-08-09T13:53:53.896Z,101761.13
2022-08-09T13:55:56.554Z,101757.41
2022-08-09T13:57:59.671Z,101755.13
2022-08-09T14:00:01.534Z,101759.69
2022-08-09T14:02:04.609Z,101753.38
2022-08-09T14:04:11.590Z,101766.59
2022-08-09T14:06:19.390Z,101756.81
2022-08-09T14:08:28.309Z,101752.84
2022-08-09T14:10:45.942Z,101748.09
2022-08-09T14:12:48.139Z,101754.50
2022-08-09T14:14:53.750Z,101742.22
2022-08-09T14:16:55.594Z,101735.78
2022-08-09T14:18:59.510Z,101734.72
2022-08-09T14:21:01.217Z,101736.56
2022-08-09T14:23:04.390Z,101730.06
2022-08-09T14:25:10.101Z,101737.84
2022-08-09T14:27:20.489Z,101734.00
2022-08-09T14:29:25.726Z,101738.88
2022-08-09T14:31:52.233Z,101721.22
2022-08-09T14:33:55.317Z,101725.91
2022-08-09T14:35:58.228Z,101723.28
2022-08-09T14:38:19.119Z,101720.81
2022-08-09T14:40:38.800Z,101714.16
2022-08-09T14:42:42.595Z,101711.38
2022-08-09T14:44:48.997Z,101713.00
2022-08-09T14:47:26.333Z,101711.81
2022-08-09T14:49:23.698Z,101698.09
2022-08-09T14:51:26.757Z,101698.81
2022-08-09T14:53:31.140Z,101701.28
2022-08-09T14:55:33.179Z,101712.19
2022-08-09T14:57:43.277Z,101701.72
2022-08-09T14:59:48.572Z,101703.75
2022-08-09T15:01:50.811Z,101698.28
2022-08-09T15:03:53.224Z,101698.13
2022-08-09T15:06:01.568Z,101694.06
2022-08-09T15:08:10.276Z,101707.19
2022-08-09T15:10:14.369Z,101704.72
2022-08-09T15:12:17.664Z,101696.25
2022-08-09T15:14:20.527Z,101699.78
2022-08-09T15:16:22.030Z,101703.97
2022-08-09T15:18:24.284Z,101699.84
2022-08-09T15:22:00.915Z,101693.63
2022-08-09T15:22:49.190Z,101692.53
2022-08-09T15:25:06.863Z,101706.28
2022-08-09T15:27:08.468Z,101697.91
2022-08-09T15:30:55.823Z,101688.69
2022-08-09T15:31:41.064Z,101697.91
2022-08-09T15:34:32.673Z,101692.72
2022-08-09T15:36:05.861Z,101695.34
2022-08-09T15:38:11.567Z,101696.94
2022-08-09T15:40:16.142Z,101693.06
2022-08-09T15:42:21.978Z,101691.56
2022-08-09T15:44:23.534Z,101694.72
2022-08-09T15:46:32.395Z,101688.16
2022-08-09T15:48:36.912Z,101675.28
2022-08-09T15:50:43.616Z,101680.09
2022-08-09T15:52:55.035Z,101672.19
2022-08-09T15:55:08.340Z,101686.66
2022-08-09T15:57:11.239Z,101684.91
2022-08-09T15:59:13.444Z,101671.63
2022-08-09T16:01:15.044Z,101666.03
2022-08-09T16:03:26.696Z,101674.06
2022-08-09T16:05:53.590Z,101657.44
2022-08-09T16:07:56.448Z,101656.63
2022-08-09T16:10:04.908Z,101660.56
2022-08-09T16:12:07.060Z,101664.19
2022-08-09T16:14:14.426Z,101646.16
2022-08-09T16:16:26.216Z,101655.09
2022-08-09T16:18:30.124Z,101652.66
2022-08-09T16:20:31.698Z,101650.22
2022-08-09T16:22:33.853Z,101647.78
2022-08-09T16:24:36.909Z,101653.50
2022-08-09T16:26:38.512Z,101635.47
2022-08-09T16:28:42.664Z,101645.44
2022-08-09T16:30:58.738Z,101645.91
2022-08-09T16:33:00.661Z,101649.44
2022-08-09T16:35:03.290Z,101651.19
2022-08-09T16:37:05.423Z,101639.81
2022-08-09T16:39:09.461Z,101647.59
2022-08-09T16:41:16.696Z,101650.78
2022-08-09T16:43:20.967Z,101647.75
2022-08-09T16:45:22.671Z,101655.47
2022-08-09T16:48:41.195Z,101636.91
2022-08-09T16:50:29.272Z,101638.69
2022-08-09T16:52:08.493Z,101646.91
2022-08-09T16:54:33.992Z,101654.66
2022-08-09T16:56:34.247Z,101640.88
2022-08-09T16:58:36.820Z,101646.06
2022-08-09T17:00:42.899Z,101640.56
2022-08-09T17:02:46.340Z,101647.19
2022-08-09T17:04:47.965Z,101641.31
2022-08-09T17:08:46.138Z,101645.72
2022-08-09T17:09:45.159Z,101636.63
2022-08-09T17:11:41.864Z,101633.16
2022-08-09T17:13:45.125Z,101639.47
2022-08-09T17:16:00.039Z,101638.19
2022-08-09T17:18:06.049Z,101640.56
2022-08-09T17:20:30.265Z,101636.03
2022-08-09T17:22:31.214Z,101638.06
2022-08-09T17:24:37.674Z,101643.13
2022-08-09T17:26:53.224Z,101630.03
2022-08-09T17:28:55.097Z,101637.50
2022-08-09T17:30:56.604Z,101628.81
2022-08-09T17:33:01.368Z,101641.22
2022-08-09T17:35:11.892Z,101638.53
2022-08-09T17:37:19.622Z,101640.59
2022-08-09T17:39:24.816Z,101643.31
2022-08-09T17:41:39.057Z,101637.03
2022-08-09T17:43:41.361Z,101636.94
2022-08-09T17:46:01.764Z,101637.31
2022-08-09T17:48:05.541Z,101631.84
2022-08-09T17:50:13.951Z,101640.44
2022-08-09T17:52:22.513Z,101634.56
2022-08-09T17:54:28.128Z,101646.16
2022-08-09T17:56:32.571Z,101632.97
2022-08-09T17:58:37.679Z,101641.75
2022-08-09T18:00:48.166Z,101637.31
2022-08-09T18:02:50.408Z,101643.13
2022-08-09T18:05:00.242Z,101654.59
2022-08-09T18:07:07.676Z,101652.16
2022-08-09T18:09:10.887Z,101646.25
2022-08-09T18:11:18.066Z,101651.63
2022-08-09T18:13:43.326Z,101645.09
2022-08-09T18:16:04.907Z,101648.53
2022-08-09T18:18:08.557Z,101648.59
2022-08-09T18:21:00.102Z,101653.94
2022-08-09T18:22:51.254Z,101654.13
2022-08-09T18:24:54.365Z,101655.16
2022-08-09T18:26:55.886Z,101654.19
2022-08-09T18:30:35.698Z,101661.22
2022-08-09T18:31:24.743Z,101657.97
2022-08-09T18:33:34.267Z,101655.81
2022-08-09T18:35:48.083Z,101659.84
2022-08-09T18:37:57.425Z,101659.66
2022-08-09T18:40:00.431Z,101653.22
2022-08-09T18:42:02.165Z,101667.16
2022-08-09T18:44:10.624Z,101669.03
2022-08-09T18:46:47.038Z,101666.03
2022-08-09T18:48:36.354Z,101666.69
2022-08-09T18:50:37.856Z,101666.13
2022-08-09T18:52:39.544Z,101671.09
2022-08-09T18:54:52.200Z,101668.25
2022-08-09T18:56:55.939Z,101675.69
2022-08-09T18:58:57.461Z,101674.16
2022-08-09T19:01:02.577Z,101676.38
2022-08-09T19:03:04.469Z,101667.16
2022-08-09T19:05:19.519Z,101676.06
2022-08-09T19:07:28.073Z,101668.28
2022-08-09T19:10:12.810Z,101665.69
2022-08-09T19:11:56.188Z,101680.78
2022-08-09T19:14:00.338Z,101675.94
2022-08-09T19:16:06.937Z,101679.94
2022-08-09T19:18:17.179Z,101684.94
2022-08-09T19:20:18.945Z,101688.84
2022-08-09T19:22:24.199Z,101689.31
2022-08-09T19:24:33.161Z,101687.41
2022-08-09T19:26:41.416Z,101695.53
2022-08-09T19:28:51.772Z,101693.00
2022-08-09T19:30:53.307Z,101700.72
2022-08-09T19:32:55.148Z,101696.19
2022-08-09T19:34:57.438Z,101702.38
2022-08-09T19:36:58.992Z,101706.53
2022-08-09T19:39:03.458Z,101700.19
2022-08-09T19:41:07.211Z,101704.41
2022-08-09T19:43:16.357Z,101701.00
2022-08-09T19:45:38.941Z,101700.59
2022-08-09T19:47:42.007Z,101712.72
2022-08-09T19:50:09.442Z,101713.94
2022-08-09T19:52:06.443Z,101713.78
2022-08-09T19:54:08.415Z,101718.69
2022-08-09T19:56:15.652Z,101716.59
2022-08-09T19:58:17.339Z,101721.94
2022-08-09T20:00:32.865Z,101715.22
2022-08-09T20:04:11.715Z,101727.44
2022-08-09T20:04:56.638Z,101731.56
2022-08-09T20:06:59.468Z,101723.56
2022-08-09T20:09:05.539Z,101726.53
2022-08-09T20:11:07.819Z,101728.25
2022-08-09T20:13:09.348Z,101727.78
2022-08-09T20:16:34.641Z,101730.13
2022-08-09T20:17:41.551Z,101736.56
2022-08-09T20:19:54.101Z,101734.06
2022-08-09T20:21:59.925Z,101737.78
2022-08-09T20:24:02.296Z,101737.66
2022-08-09T20:26:04.179Z,101735.59
2022-08-09T20:28:08.484Z,101741.38
2022-08-09T20:30:14.781Z,101739.75
2022-08-09T20:32:41.934Z,101728.59
2022-08-09T20:34:42.571Z,101749.13
2022-08-09T20:36:45.233Z,101751.38
2022-08-09T20:40:16.499Z,101748.03
2022-08-09T20:41:08.379Z,101754.28
2022-08-09T20:43:24.299Z,101747.59
2022-08-09T20:45:57.546Z,101752.00
2022-08-09T20:47:48.814Z,101753.25
2022-08-09T20:49:51.860Z,101746.19
2022-08-09T20:51:53.422Z,101747.78
2022-08-09T20:53:55.989Z,101747.34
2022-08-09T20:56:02.430Z,101746.91
2022-08-09T20:58:07.764Z,101752.97
2022-08-09T21:00:31.120Z,101751.53
2022-08-09T21:02:34.189Z,101746.19
2022-08-09T21:05:50.730Z,101744.03
2022-08-09T21:06:58.837Z,101744.31
2022-08-09T21:09:00.458Z,101749.00
2022-08-09T21:11:02.772Z,101749.66
2022-08-09T21:13:08.032Z,101753.94
2022-08-09T21:15:15.475Z,101757.94
2022-08-09T21:18:22.257Z,101750.22
2022-08-09T21:20:18.833Z,101757.03
2022-08-09T21:22:02.811Z,101756.31
2022-08-09T21:24:04.725Z,101745.78
2022-08-09T21:26:07.209Z,101750.78
2022-08-09T21:28:12.259Z,101749.00
2022-08-09T21:30:18.804Z,101756.19
2022-08-09T21:32:20.445Z,101753.44
2022-08-09T21:34:34.988Z,101756.88
2022-08-09T21:36:36.571Z,101750.19
2022-08-09T21:38:39.435Z,101750.66
2022-08-09T21:40:40.975Z,101751.47
2022-08-09T21:42:42.498Z,101751.94
2022-08-09T21:44:46.236Z,101749.31
2022-08-09T21:46:47.737Z,101752.78
2022-08-09T21:48:50.008Z,101749.38
2022-08-09T21:50:51.631Z,101762.19
2022-08-09T21:52:53.166Z,101752.91
2022-08-09T21:55:03.181Z,101756.78
2022-08-09T21:57:06.157Z,101751.34
2022-08-09T21:59:27.044Z,101752.91
2022-08-09T22:01:58.634Z,101760.00
2022-08-09T22:04:01.024Z,101762.22
2022-08-09T22:06:02.555Z,101759.66
2022-08-09T22:08:04.546Z,101758.31
2022-08-09T22:10:08.136Z,101751.66
2022-08-09T22:12:18.614Z,101747.59
2022-08-09T22:14:27.132Z,101755.38
2022-08-09T22:16:33.005Z,101752.31
2022-08-09T22:18:38.426Z,101757.38
2022-08-09T22:20:55.269Z,101751.75
2022-08-09T22:22:57.310Z,101752.56
2022-08-09T22:26:08.196Z,101757.44
2022-08-09T22:27:21.720Z,101751.75
2022-08-09T22:29:32.280Z,101752.00
2022-08-09T22:31:56.340Z,101751.72
2022-08-09T22:33:58.650Z,101748.06
2022-08-09T22:36:03.709Z,101747.19
2022-08-09T22:38:06.921Z,101739.84
2022-08-09T22:40:10.210Z,101744.53
2022-08-09T22:42:21.967Z,101742.31
2022-08-09T22:44:32.686Z,101741.44
2022-08-09T22:48:17.101Z,101737.63
2022-08-09T22:48:56.155Z,101740.94
2022-08-09T22:51:10.455Z,101742.41
2022-08-09T22:53:12.500Z,101739.25
2022-08-09T22:55:22.871Z,101739.22
2022-08-09T22:57:31.708Z,101750.47
2022-08-09T22:59:55.146Z,101729.63
2022-08-09T23:01:58.118Z,101739.69
2022-08-09T23:04:04.340Z,101736.44
2022-08-09T23:06:07.973Z,101722.06
2022-08-09T23:08:29.299Z,101735.06
2022-08-09T23:10:31.706Z,101730.78
2022-08-09T23:12:33.245Z,101728.88
2022-08-09T23:14:41.847Z,101727.34
2022-08-09T23:16:45.378Z,101733.16
2022-08-09T23:18:46.910Z,101728.56
2022-08-09T23:20:48.451Z,101717.41
2022-08-09T23:22:49.998Z,101723.06
2022-08-09T23:24:51.612Z,101724.25
2022-08-09T23:26:53.100Z,101715.88
2022-08-09T23:28:54.616Z,101709.50
2022-08-09T23:30:56.258Z,101708.94
2022-08-09T23:32:59.119Z,101719.78
2022-08-09T23:35:00.655Z,101711.78
2022-08-09T23:37:02.409Z,101710.41
2022-08-09T23:39:04.661Z,101716.59
2022-08-09T23:41:06.238Z,101709.66
2022-08-09T23:43:08.004Z,101708.31
2022-08-09T23:45:10.033Z,101706.19
2022-08-09T23:47:31.521Z,101711.66
2022-08-09T23:49:34.439Z,101709.19
2022-08-09T23:51:35.955Z,101700.66
2022-08-09T23:53:37.650Z,101712.13
2022-08-09T23:55:40.059Z,101706.81
2022-08-09T23:58:02.718Z,101711.06
